Time;durP1;ratioP1;P1;durP2;ratioP2;P2;SDS_P1;SDS_P2;PMS_P1;PMS_P2;Temp;Humidity;BMP_temperature;BMP_pressure;BME280_temperature;BME280_humidity;BME280_pressure;Samples;Min_cycle;Max_cycle;Signal;HPM_P1;HPM_P2
2021/03/16 00:01:16;;;;;;;18.35;3.53;;;;;;;5.13;99.53;100538.84;5190064;28;20503;-75
2021/03/16 00:03:46;;;;;;;25.35;3.47;;;;;;;5.13;99.81;100551.81;5190636;28;20483;-75
2021/03/16 00:06:17;;;;;;;24.00;3.67;;;;;;;5.09;100.00;100557.03;5188893;28;20057;-75
2021/03/16 00:08:47;;;;;;;20.67;3.92;;;;;;;5.06;100.00;100559.69;5204573;28;20064;-75
2021/03/16 00:11:17;;;;;;;23.20;3.67;;;;;;;5.06;100.00;100560.56;5205616;28;20036;-75
2021/03/16 00:13:48;;;;;;;23.15;3.70;;;;;;;5.07;100.00;100557.09;5199010;28;20025;-75
2021/03/16 00:16:19;;;;;;;24.75;3.20;;;;;;;5.04;100.00;100567.50;5203553;28;20040;-75
2021/03/16 00:18:49;;;;;;;18.90;3.33;;;;;;;5.05;100.00;100569.19;5200392;28;20029;-75
2021/03/16 00:21:20;;;;;;;25.13;4.13;;;;;;;5.01;100.00;100575.28;5193486;28;20037;-75
2021/03/16 00:23:50;;;;;;;24.33;4.00;;;;;;;4.95;100.00;100584.88;5195564;28;20403;-75
2021/03/16 00:26:20;;;;;;;23.75;3.45;;;;;;;4.94;100.00;100571.06;5191761;28;20101;-75
2021/03/16 00:28:50;;;;;;;20.92;3.50;;;;;;;4.96;100.00;100579.66;5202740;28;20065;-75
2021/03/16 00:31:21;;;;;;;24.45;4.07;;;;;;;4.94;100.00;100584.00;5197116;28;20025;-76
2021/03/16 00:33:51;;;;;;;34.67;3.95;;;;;;;5.00;100.00;100577.91;5195386;28;20056;-75
2021/03/16 00:36:22;;;;;;;22.35;3.15;;;;;;;4.91;99.95;100588.38;5192007;28;20487;-75
2021/03/16 00:38:52;;;;;;;20.35;3.80;;;;;;;4.89;100.00;100598.75;5194953;28;20109;-75
2021/03/16 00:41:22;;;;;;;19.33;3.45;;;;;;;4.86;100.00;100585.84;5192371;28;20543;-75
2021/03/16 00:43:53;;;;;;;21.65;3.10;;;;;;;4.89;100.00;100595.28;5201757;28;20057;-75
2021/03/16 00:46:23;;;;;;;28.75;3.83;;;;;;;4.84;100.00;100597.94;5202427;28;20518;-76
2021/03/16 00:48:53;;;;;;;24.27;3.67;;;;;;;4.88;100.00;100609.13;5199588;28;20031;-75
2021/03/16 00:51:23;;;;;;;21.25;3.13;;;;;;;4.76;100.00;100594.59;5190524;28;20462;-75
2021/03/16 00:53:54;;;;;;;21.33;3.75;;;;;;;4.76;100.00;100609.25;5194949;28;20029;-75
2021/03/16 00:56:25;;;;;;;19.00;3.10;;;;;;;4.72;100.00;100605.00;5191848;28;20030;-75
2021/03/16 00:58:55;;;;;;;22.92;3.42;;;;;;;4.67;100.00;100612.81;5198955;28;20033;-75
2021/03/16 01:01:25;;;;;;;24.35;4.22;;;;;;;4.66;100.00;100616.28;5195429;28;20029;-75
2021/03/16 01:03:55;;;;;;;23.00;3.45;;;;;;;4.59;100.00;100612.06;5191301;28;20072;-76
2021/03/16 01:06:26;;;;;;;20.73;3.97;;;;;;;4.67;100.00;100622.31;5194416;28;20029;-75
2021/03/16 01:08:56;;;;;;;20.55;3.35;;;;;;;4.53;100.00;100624.19;5200337;28;20407;-75
2021/03/16 01:11:26;;;;;;;19.30;4.13;;;;;;;4.58;100.00;100631.03;5194168;28;20052;-75
2021/03/16 01:13:57;;;;;;;26.80;4.20;;;;;;;4.53;100.00;100632.81;5197384;28;20049;-75
2021/03/16 01:16:27;;;;;;;20.63;3.60;;;;;;;4.54;100.00;100631.94;5195169;28;20412;-75
2021/03/16 01:18:57;;;;;;;23.23;3.58;;;;;;;4.47;100.00;100632.88;5197381;28;20653;-75
2021/03/16 01:21:27;;;;;;;24.80;4.35;;;;;;;4.51;100.00;100634.59;5197457;28;20051;-75
2021/03/16 01:23:58;;;;;;;24.85;3.60;;;;;;;4.52;100.00;100638.00;5209069;28;20243;-75
2021/03/16 01:26:28;;;;;;;20.50;3.83;;;;;;;4.47;100.00;100643.22;5198495;28;20060;-75
2021/03/16 01:29:01;;;;;;;19.73;3.67;;;;;;;4.44;100.00;100637.25;5197974;28;20025;-75
2021/03/16 01:31:31;;;;;;;26.48;4.25;;;;;;;4.41;100.00;100657.94;5196375;28;20036;-75
2021/03/16 01:34:02;;;;;;;24.10;3.88;;;;;;;4.46;100.00;100651.84;5201885;28;20029;-76
2021/03/16 01:36:32;;;;;;;21.55;3.83;;;;;;;4.51;100.00;100660.47;5198004;28;20410;-75
2021/03/16 01:39:04;;;;;;;25.60;3.20;;;;;;;4.40;100.00;100661.41;5195598;28;20547;-76
2021/03/16 01:41:34;;;;;;;24.45;4.30;;;;;;;4.39;100.00;100668.31;5190178;28;20164;-75
2021/03/16 01:44:04;;;;;;;20.95;3.28;;;;;;;4.32;100.00;100664.06;5192703;28;20025;-74
2021/03/16 01:46:35;;;;;;;16.02;3.72;;;;;;;4.30;100.00;100668.41;5195501;28;20029;-75
2021/03/16 01:49:06;;;;;;;26.20;4.68;;;;;;;4.25;100.00;100664.13;5192585;28;20160;-75
2021/03/16 01:51:37;;;;;;;25.40;3.78;;;;;;;4.35;100.00;100666.66;5192076;28;20112;-75
2021/03/16 01:54:08;;;;;;;27.00;4.22;;;;;;;4.36;100.00;100672.66;5189672;28;20308;-76
2021/03/16 01:56:40;;;;;;;23.08;3.47;;;;;;;4.34;100.00;100667.53;5182318;28;20044;-75
2021/03/16 01:59:16;;;;;;;18.60;3.33;;;;;;;4.34;100.00;100674.41;5195065;28;20021;-74
2021/03/16 02:01:47;;;;;;;21.58;3.13;;;;;;;4.37;100.00;100674.38;5198753;28;20268;-75
2021/03/16 02:04:18;;;;;;;17.08;2.83;;;;;;;4.38;99.45;100676.09;5195087;28;20060;-75
2021/03/16 02:07:05;;;;;;;20.30;3.05;;;;;;;4.36;99.60;100675.25;5196827;28;20033;-75
2021/03/16 02:10:15;;;;;;;17.35;3.00;;;;;;;4.30;99.89;100670.97;5195898;28;20055;-75
2021/03/16 02:12:58;;;;;;;12.50;2.97;;;;;;;4.30;99.67;100670.13;5187890;28;20479;-75
2021/03/16 02:15:39;;;;;;;22.45;3.28;;;;;;;4.25;98.99;100672.75;5200209;28;20514;-75
2021/03/16 02:18:14;;;;;;;18.60;3.42;;;;;;;4.16;99.64;100672.81;5196629;28;20080;-75
2021/03/16 02:21:15;;;;;;;17.65;3.35;;;;;;;4.15;99.25;100678.03;5191847;28;20029;-76
2021/03/16 02:24:04;;;;;;;17.73;3.28;;;;;;;4.22;99.46;100688.31;5192739;28;20032;-75
2021/03/16 02:26:40;;;;;;;18.27;3.00;;;;;;;4.07;99.31;100691.00;5196630;28;20055;-76
2021/03/16 02:29:24;;;;;;;22.02;3.15;;;;;;;4.06;99.09;100697.06;5198924;28;20095;-75
2021/03/16 02:31:59;;;;;;;20.00;3.60;;;;;;;4.10;98.93;100705.66;5199776;28;20526;-75
2021/03/16 02:34:33;;;;;;;18.50;3.03;;;;;;;4.00;99.03;100709.16;5199507;28;20033;-74
2021/03/16 02:37:05;;;;;;;24.77;3.70;;;;;;;4.10;98.93;100709.09;5195600;28;20038;-76
2021/03/16 02:39:37;;;;;;;17.20;3.08;;;;;;;4.09;98.93;100707.38;5198337;28;20147;-74
2021/03/16 02:42:09;;;;;;;17.45;3.53;;;;;;;4.10;99.09;100709.09;5197000;28;20033;-75
2021/03/16 02:44:41;;;;;;;17.08;3.05;;;;;;;3.99;99.30;100716.03;5198850;28;20382;-75
2021/03/16 02:47:12;;;;;;;20.02;3.47;;;;;;;4.00;99.34;100722.97;5200620;28;20063;-75
2021/03/16 02:49:45;;;;;;;23.38;3.47;;;;;;;3.96;99.82;100725.56;5193014;28;20439;-75
2021/03/16 02:52:17;;;;;;;21.60;3.40;;;;;;;3.96;99.30;100726.41;5190596;28;20022;-75
2021/03/16 02:54:49;;;;;;;21.08;3.13;;;;;;;3.98;99.17;100724.66;5190532;28;20480;-74
2021/03/16 02:57:22;;;;;;;18.98;3.22;;;;;;;3.94;99.88;100727.31;5190028;28;20026;-75
2021/03/16 02:59:53;;;;;;;16.90;3.28;;;;;;;3.94;100.00;100733.31;5190284;28;20575;-75
2021/03/16 03:02:25;;;;;;;24.02;3.67;;;;;;;3.83;99.74;100735.16;5189383;28;20388;-75
2021/03/16 03:04:56;;;;;;;29.05;3.85;;;;;;;3.86;100.00;100744.59;5190813;28;20025;-75
2021/03/16 03:07:28;;;;;;;14.93;2.65;;;;;;;3.82;100.00;100740.31;5189613;28;20356;-75
2021/03/16 03:09:59;;;;;;;21.10;3.78;;;;;;;3.77;100.00;100739.47;5199144;28;20192;-75
2021/03/16 03:12:29;;;;;;;18.15;3.40;;;;;;;3.74;100.00;100745.50;5193445;28;20141;-76
2021/03/16 03:14:59;;;;;;;21.70;3.35;;;;;;;3.76;100.00;100738.59;5196691;28;20195;-75
2021/03/16 03:17:30;;;;;;;24.27;3.42;;;;;;;3.70;100.00;100749.00;5189448;28;20060;-75
2021/03/16 03:20:00;;;;;;;16.27;2.95;;;;;;;3.72;100.00;100757.59;5199605;28;20033;-75
2021/03/16 03:22:44;;;;;;;19.33;3.47;;;;;;;3.61;100.00;100758.50;5192435;28;20025;-75
2021/03/16 03:25:25;;;;;;;23.48;3.10;;;;;;;3.51;100.00;100758.56;5192026;28;20033;-75
2021/03/16 03:28:03;;;;;;;20.60;3.80;;;;;;;3.45;100.00;100767.19;5190786;28;20375;-75
2021/03/16 03:30:34;;;;;;;19.40;3.15;;;;;;;3.47;100.00;100770.63;5192383;28;20025;-76
2021/03/16 03:33:05;;;;;;;16.00;3.03;;;;;;;3.45;100.00;100771.50;5187527;28;20025;-75
2021/03/16 03:35:37;;;;;;;20.77;3.17;;;;;;;3.38;100.00;100780.13;5191922;28;20360;-76
2021/03/16 03:38:09;;;;;;;21.95;3.00;;;;;;;3.35;100.00;100780.16;5188281;28;20029;-74
2021/03/16 03:40:43;;;;;;;24.27;3.67;;;;;;;3.42;100.00;100782.72;5190982;28;20025;-75
2021/03/16 03:43:16;;;;;;;19.08;3.30;;;;;;;3.38;100.00;100788.72;5192345;28;20521;-74
2021/03/16 03:45:50;;;;;;;19.92;3.30;;;;;;;3.35;100.00;100793.91;5198518;28;20454;-75
2021/03/16 03:48:23;;;;;;;20.00;3.15;;;;;;;3.29;100.00;100791.34;5192590;28;20022;-75
2021/03/16 03:50:56;;;;;;;20.45;3.42;;;;;;;3.38;100.00;100799.06;5190676;28;20116;-75
2021/03/16 03:53:27;;;;;;;18.67;2.83;;;;;;;3.37;100.00;100805.09;5187451;28;20388;-75
2021/03/16 03:56:00;;;;;;;15.18;3.58;;;;;;;3.36;100.00;100794.78;5188347;28;20040;-75
2021/03/16 03:58:30;;;;;;;22.80;3.33;;;;;;;3.35;100.00;100800.81;5195181;28;20116;-75
2021/03/16 04:01:01;;;;;;;20.02;3.13;;;;;;;3.25;100.00;100799.09;5199611;28;20446;-76
2021/03/16 04:03:33;;;;;;;29.05;3.50;;;;;;;3.25;100.00;100801.69;5198159;28;20449;-75
2021/03/16 04:06:04;;;;;;;23.58;3.33;;;;;;;3.17;100.00;100798.28;5195261;28;20055;-76
2021/03/16 04:08:36;;;;;;;19.55;3.47;;;;;;;3.22;100.00;100806.88;5190340;28;20029;-76
2021/03/16 04:11:07;;;;;;;26.45;3.67;;;;;;;3.16;100.00;100806.91;5199314;28;20037;-76
2021/03/16 04:13:38;;;;;;;21.25;4.07;;;;;;;3.17;100.00;100816.34;5195128;28;20442;-76
2021/03/16 04:16:09;;;;;;;25.67;4.13;;;;;;;3.17;100.00;100808.63;5198558;28;20252;-76
2021/03/16 04:18:40;;;;;;;30.00;4.60;;;;;;;3.18;100.00;100812.91;5194608;28;20040;-77
2021/03/16 04:21:12;;;;;;;24.20;4.20;;;;;;;3.17;100.00;100806.88;5188238;28;20100;-77
2021/03/16 04:23:43;;;;;;;28.40;5.00;;;;;;;3.14;100.00;100822.38;5190452;28;20123;-76
2021/03/16 04:26:13;;;;;;;27.02;4.57;;;;;;;3.13;100.00;100818.06;5189019;28;20061;-76
2021/03/16 04:28:43;;;;;;;30.45;4.85;;;;;;;3.13;100.00;100814.63;5189938;28;20025;-76
2021/03/16 04:31:14;;;;;;;34.53;5.22;;;;;;;3.19;100.00;100819.78;5189093;28;20030;-76
2021/03/16 04:33:44;;;;;;;29.63;5.15;;;;;;;3.14;100.00;100824.97;5189917;28;20537;-76
2021/03/16 04:36:14;;;;;;;32.05;5.55;;;;;;;3.10;100.00;100822.38;5188983;28;20251;-76
2021/03/16 04:38:44;;;;;;;30.02;5.70;;;;;;;3.10;100.00;100827.53;5194848;28;20021;-76
2021/03/16 04:41:15;;;;;;;29.17;6.07;;;;;;;3.10;100.00;100830.13;5195442;28;20025;-77
2021/03/16 04:43:45;;;;;;;31.02;5.90;;;;;;;3.11;100.00;100826.69;5195217;28;20036;-77
2021/03/16 04:46:17;;;;;;;25.65;6.55;;;;;;;3.16;100.00;100833.56;5192268;28;20033;-76
2021/03/16 04:48:47;;;;;;;25.08;6.35;;;;;;;3.21;100.00;100833.56;5189006;28;20029;-76
2021/03/16 04:51:17;;;;;;;28.08;6.95;;;;;;;3.14;100.00;100843.03;5189273;28;20173;-76
2021/03/16 04:53:48;;;;;;;29.88;7.10;;;;;;;3.14;100.00;100847.31;5189018;28;20033;-76
2021/03/16 04:56:18;;;;;;;29.27;6.60;;;;;;;3.09;100.00;100844.78;5192214;28;20036;-76
2021/03/16 04:58:48;;;;;;;32.17;6.80;;;;;;;3.11;100.00;100853.38;5189541;28;20482;-76
2021/03/16 05:01:19;;;;;;;24.63;7.10;;;;;;;3.11;100.00;100850.78;5190531;28;20046;-76
2021/03/16 05:03:49;;;;;;;31.17;7.35;;;;;;;3.17;100.00;100847.34;5200590;28;20025;-76
2021/03/16 05:06:19;;;;;;;34.55;7.38;;;;;;;3.11;100.00;100855.94;5198654;28;20432;-77
2021/03/16 05:08:50;;;;;;;23.65;6.82;;;;;;;3.20;100.00;100849.91;5198341;28;20029;-77
2021/03/16 05:11:20;;;;;;;23.10;6.72;;;;;;;3.09;100.00;100859.38;5203956;28;20134;-76
2021/03/16 05:13:51;;;;;;;29.17;7.72;;;;;;;3.14;100.00;100867.97;5202056;28;20037;-76
2021/03/16 05:16:22;;;;;;;34.15;7.90;;;;;;;3.21;100.00;100865.38;5194211;28;20180;-76
2021/03/16 05:18:52;;;;;;;30.40;7.82;;;;;;;3.29;100.00;100867.94;5192952;28;20484;-76
2021/03/16 05:21:22;;;;;;;26.95;7.65;;;;;;;3.37;100.00;100871.41;5190762;28;20132;-76
2021/03/16 05:24:01;;;;;;;29.45;7.40;;;;;;;3.29;100.00;100870.53;5200869;28;20041;-77
2021/03/16 05:26:31;;;;;;;26.23;7.28;;;;;;;3.23;100.00;100871.41;5203943;28;20025;-76
2021/03/16 05:29:03;;;;;;;29.55;6.78;;;;;;;3.24;100.00;100877.44;5201178;28;20044;-76
2021/03/16 05:31:34;;;;;;;26.05;7.43;;;;;;;3.28;100.00;100886.91;5199914;28;20032;-77
2021/03/16 05:34:04;;;;;;;28.50;7.35;;;;;;;3.34;100.00;100887.75;5196491;28;20033;-77
2021/03/16 05:36:34;;;;;;;25.80;7.47;;;;;;;3.42;100.00;100892.91;5194458;28;20112;-76
2021/03/16 05:39:05;;;;;;;28.48;7.65;;;;;;;3.43;100.00;100892.03;5198873;28;20597;-76
2021/03/16 05:41:36;;;;;;;22.52;6.68;;;;;;;3.45;100.00;100898.94;5205841;28;20100;-75
2021/03/16 05:44:11;;;;;;;27.50;8.02;;;;;;;3.55;100.00;100905.78;5203487;28;20029;-76
2021/03/16 05:46:41;;;;;;;20.88;7.20;;;;;;;3.49;100.00;100902.34;5200352;28;20029;-77
2021/03/16 05:49:15;;;;;;;26.00;7.00;;;;;;;3.52;100.00;100907.53;5196442;28;20045;-77
2021/03/16 05:51:45;;;;;;;20.30;7.25;;;;;;;3.47;100.00;100912.69;5191738;28;20026;-76
2021/03/16 05:54:16;;;;;;;27.45;7.60;;;;;;;3.50;100.00;100917.84;5192276;28;20048;-76
2021/03/16 05:56:47;;;;;;;25.63;7.72;;;;;;;3.54;100.00;100916.13;5191549;28;20033;-76
2021/03/16 05:59:18;;;;;;;27.20;7.13;;;;;;;3.56;100.00;100920.41;5194973;28;20032;-76
2021/03/16 06:01:48;;;;;;;25.08;7.75;;;;;;;3.40;100.00;100923.03;5201622;28;20391;-76
2021/03/16 06:04:18;;;;;;;21.50;7.95;;;;;;;3.58;100.00;100923.00;5195220;28;20101;-76
2021/03/16 06:06:49;;;;;;;25.33;7.22;;;;;;;3.54;100.00;100929.06;5191676;28;20029;-76
2021/03/16 06:09:19;;;;;;;28.63;7.50;;;;;;;3.60;100.00;100935.91;5193043;28;20048;-76
2021/03/16 06:11:50;;;;;;;29.10;8.23;;;;;;;3.67;100.00;100935.06;5193429;28;20064;-77
2021/03/16 06:14:30;;;;;;;19.88;7.30;;;;;;;3.74;100.00;100939.34;5201739;28;20024;-76
2021/03/16 06:17:01;;;;;;;29.38;8.82;;;;;;;3.72;100.00;100938.50;5202630;28;20476;-77
2021/03/16 06:19:36;;;;;;;26.90;7.93;;;;;;;3.70;100.00;100939.34;5198092;28;20108;-76
2021/03/16 06:22:08;;;;;;;26.25;8.68;;;;;;;3.70;100.00;100940.22;5199629;28;20029;-76
2021/03/16 06:24:47;;;;;;;26.15;8.65;;;;;;;3.77;100.00;100947.09;5199148;28;20044;-77
2021/03/16 06:27:24;;;;;;;27.77;9.20;;;;;;;3.92;100.00;100947.03;5204276;28;20040;-75
2021/03/16 06:29:55;;;;;;;28.10;9.30;;;;;;;3.91;100.00;100949.63;5206743;28;20111;-76
2021/03/16 06:32:32;;;;;;;33.65;10.55;;;;;;;3.96;100.00;100951.34;5206522;28;20033;-77
2021/03/16 06:35:02;;;;;;;36.88;9.38;;;;;;;3.81;100.00;100963.44;5204885;28;20553;-77
2021/03/16 06:37:34;;;;;;;28.40;10.63;;;;;;;3.85;100.00;100960.88;5199681;28;20025;-77
2021/03/16 06:40:05;;;;;;;29.33;9.75;;;;;;;3.92;100.00;100965.13;5199811;28;20029;-77
2021/03/16 06:42:35;;;;;;;27.88;8.27;;;;;;;3.88;100.00;100968.59;5197041;28;20025;-77
2021/03/16 06:45:07;;;;;;;30.45;9.20;;;;;;;4.03;100.00;100971.16;5202766;28;20493;-76
2021/03/16 06:47:41;;;;;;;28.83;8.98;;;;;;;4.00;100.00;100968.59;5205027;28;20112;-76
2021/03/16 06:50:12;;;;;;;33.47;9.32;;;;;;;4.04;100.00;100969.41;5198594;28;20038;-77
2021/03/16 06:52:48;;;;;;;25.20;9.10;;;;;;;4.01;100.00;100972.88;5194168;28;20390;-75
2021/03/16 06:55:19;;;;;;;33.85;8.70;;;;;;;3.99;100.00;100979.75;5188874;28;20491;-76
2021/03/16 06:57:50;;;;;;;27.77;8.52;;;;;;;4.08;100.00;100981.47;5189976;28;20052;-77
2021/03/16 07:00:21;;;;;;;26.38;8.13;;;;;;;4.02;100.00;100984.94;5198878;28;20052;-76
2021/03/16 07:02:51;;;;;;;32.67;8.73;;;;;;;4.10;100.00;100988.34;5199031;28;20033;-77
2021/03/16 07:05:26;;;;;;;27.63;9.25;;;;;;;4.16;100.00;100985.75;5192145;28;20030;-74
2021/03/16 07:07:58;;;;;;;28.92;9.13;;;;;;;4.35;100.00;100990.00;5191221;28;20515;-76
2021/03/16 07:10:28;;;;;;;31.27;8.27;;;;;;;4.27;99.77;100986.56;5198884;28;20258;-76
2021/03/16 07:12:59;;;;;;;29.67;8.52;;;;;;;4.25;99.84;100993.47;5195685;28;20484;-77
2021/03/16 07:15:31;;;;;;;28.25;8.00;;;;;;;4.25;100.00;100997.78;5198710;28;20040;-77
2021/03/16 07:18:01;;;;;;;26.98;8.70;;;;;;;4.36;100.00;101002.06;5195595;28;20033;-77
2021/03/16 07:20:34;;;;;;;34.30;8.65;;;;;;;4.37;100.00;101003.78;5192376;28;20041;-77
2021/03/16 07:23:07;;;;;;;28.77;8.15;;;;;;;4.49;99.57;101003.72;5191918;28;20045;-75
2021/03/16 07:25:39;;;;;;;33.92;8.23;;;;;;;4.55;99.49;101008.88;5187450;28;20033;-76
2021/03/16 07:28:10;;;;;;;28.52;8.10;;;;;;;4.49;99.35;101003.72;5191630;28;20033;-76
2021/03/16 07:30:41;;;;;;;29.05;7.72;;;;;;;4.45;99.44;101011.53;5188504;28;20426;-77
2021/03/16 07:33:14;;;;;;;26.67;8.85;;;;;;;4.58;99.07;101006.28;5191442;28;20072;-76
2021/03/16 07:35:45;;;;;;;29.17;8.25;;;;;;;4.55;99.18;101014.06;5199702;28;20047;-77
2021/03/16 07:38:15;;;;;;;22.45;8.88;;;;;;;4.68;98.84;101017.44;5194224;28;20030;-76
2021/03/16 07:40:46;;;;;;;24.85;8.18;;;;;;;4.80;98.95;101010.47;5187543;28;20030;-77
2021/03/16 07:43:17;;;;;;;26.23;8.90;;;;;;;4.71;98.69;101013.13;5188318;28;20033;-76
2021/03/16 07:45:47;;;;;;;25.50;8.90;;;;;;;4.80;97.84;101018.25;5190578;28;20390;-77
2021/03/16 07:48:19;;;;;;;32.03;8.55;;;;;;;4.80;97.42;101015.66;5187465;28;20044;-76
2021/03/16 07:50:50;;;;;;;28.88;7.72;;;;;;;4.69;97.89;101016.59;5189064;28;20029;-75
2021/03/16 07:53:27;;;;;;;31.77;7.95;;;;;;;4.73;98.14;101013.09;5190077;28;20049;-77
2021/03/16 07:56:08;;;;;;;23.77;6.95;;;;;;;4.84;97.93;101016.50;5199339;28;20148;-76
2021/03/16 07:58:45;;;;;;;32.70;7.70;;;;;;;4.82;97.21;101019.09;5195957;28;20745;-77
2021/03/16 08:01:16;;;;;;;29.70;7.28;;;;;;;4.80;97.06;101018.25;5194926;28;20037;-77
2021/03/16 08:03:47;;;;;;;25.40;7.40;;;;;;;4.92;96.00;101023.34;5194821;28;20030;-77
2021/03/16 08:06:25;;;;;;;23.35;6.35;;;;;;;5.01;96.14;101019.84;5188073;28;20033;-77
2021/03/16 08:08:56;;;;;;;23.40;5.80;;;;;;;4.97;96.28;101031.97;5194647;28;20545;-76
2021/03/16 08:11:40;;;;;;;25.10;5.47;;;;;;;4.96;96.49;101025.06;5196378;28;20029;-77
2021/03/16 08:14:10;;;;;;;21.02;5.47;;;;;;;5.01;96.46;101031.06;5195390;28;20025;-77
2021/03/16 08:16:42;;;;;;;27.30;6.15;;;;;;;5.08;96.22;101027.59;5196655;28;20035;-76
2021/03/16 08:19:18;;;;;;;22.67;5.32;;;;;;;5.10;95.83;101036.19;5188091;28;20040;-76
2021/03/16 08:21:58;;;;;;;24.90;5.30;;;;;;;5.22;95.10;101033.53;5189385;28;20117;-77
2021/03/16 08:24:40;;;;;;;26.25;5.10;;;;;;;5.19;95.10;101028.34;5187970;28;20036;-77
2021/03/16 08:27:15;;;;;;;25.52;4.80;;;;;;;5.23;95.13;101032.66;5194669;28;20091;-76
2021/03/16 08:29:48;;;;;;;25.00;5.30;;;;;;;5.29;95.73;101035.22;5197700;28;20242;-76
2021/03/16 08:32:20;;;;;;;20.55;4.72;;;;;;;5.39;94.65;101031.69;5193255;28;20053;-77
2021/03/16 08:34:51;;;;;;;24.63;4.80;;;;;;;5.41;94.69;101032.53;5193024;28;20021;-77
2021/03/16 08:37:29;;;;;;;23.20;4.75;;;;;;;5.42;94.05;101035.09;5192760;28;20033;-76
2021/03/16 08:40:00;;;;;;;23.05;4.80;;;;;;;5.39;94.21;101045.50;5200222;28;20037;-75
2021/03/16 08:42:31;;;;;;;24.25;4.80;;;;;;;5.50;93.20;101035.03;5207195;28;20483;-77
2021/03/16 08:45:01;;;;;;;22.75;4.28;;;;;;;5.60;93.16;101034.09;5197425;28;20048;-77
2021/03/16 08:47:31;;;;;;;23.80;4.20;;;;;;;5.76;92.91;101040.88;5198208;28;20039;-75
2021/03/16 08:50:02;;;;;;;22.67;4.05;;;;;;;5.84;92.11;101039.97;5193673;28;20033;-76
2021/03/16 08:52:32;;;;;;;24.92;3.65;;;;;;;5.82;90.45;101046.91;5201924;28;20038;-76
2021/03/16 08:55:03;;;;;;;21.90;3.72;;;;;;;5.86;90.51;101047.72;5201517;28;20037;-77
2021/03/16 08:57:34;;;;;;;20.33;3.70;;;;;;;5.82;90.42;101046.03;5200158;28;20112;-77
2021/03/16 09:00:05;;;;;;;22.85;4.10;;;;;;;6.04;90.39;101042.34;5198170;28;20121;-76
2021/03/16 09:02:36;;;;;;;21.17;4.10;;;;;;;5.92;90.91;101053.72;5196542;28;20079;-76
2021/03/16 09:05:18;;;;;;;18.85;3.58;;;;;;;5.88;90.60;101048.59;5191524;28;20029;-77
2021/03/16 09:07:48;;;;;;;20.92;3.15;;;;;;;5.91;88.95;101053.75;5198037;28;20605;-76
2021/03/16 09:10:19;;;;;;;19.17;3.08;;;;;;;6.01;88.08;101051.06;5196949;28;20036;-76
2021/03/16 09:12:51;;;;;;;18.05;2.65;;;;;;;6.08;87.61;101044.91;5193909;28;20060;-77
2021/03/16 09:15:27;;;;;;;15.25;2.90;;;;;;;6.24;87.08;101045.63;5197821;28;20029;-77
2021/03/16 09:18:03;;;;;;;21.23;2.92;;;;;;;6.52;86.78;101047.03;5190501;28;20099;-77
2021/03/16 09:20:41;;;;;;;18.00;3.47;;;;;;;6.60;85.92;101045.22;5194154;28;20714;-77
2021/03/16 09:23:13;;;;;;;16.05;2.70;;;;;;;6.56;86.30;101049.56;5191249;28;20041;-77
2021/03/16 09:25:46;;;;;;;16.15;2.75;;;;;;;6.49;86.09;101050.53;5191452;28;20511;-76
2021/03/16 09:28:16;;;;;;;15.38;2.53;;;;;;;6.62;85.39;101056.44;5190770;28;20096;-77
2021/03/16 09:30:54;;;;;;;19.52;3.00;;;;;;;6.64;85.60;101052.97;5195377;28;20479;-76
2021/03/16 09:33:25;;;;;;;16.63;4.30;;;;;;;6.79;85.13;101051.91;5200867;28;20036;-76
2021/03/16 09:36:01;;;;;;;25.88;6.07;;;;;;;6.77;85.41;101059.69;5205538;28;20037;-76
2021/03/16 09:38:31;;;;;;;34.17;10.52;;;;;;;6.86;84.19;101049.19;5203335;28;20446;-76
2021/03/16 09:41:08;;;;;;;29.38;7.88;;;;;;;6.64;84.73;101057.28;5201269;28;20087;-76
2021/03/16 09:43:39;;;;;;;18.48;5.00;;;;;;;6.64;85.60;101055.56;5199160;28;20029;-77
2021/03/16 09:46:12;;;;;;;14.02;3.60;;;;;;;6.62;85.27;101059.03;5200990;28;20503;-76
2021/03/16 09:48:51;;;;;;;17.02;3.20;;;;;;;6.55;85.52;101062.56;5200426;28;20079;-77
2021/03/16 09:51:24;;;;;;;16.67;2.70;;;;;;;6.48;85.77;101059.22;5193102;28;20040;-76
2021/03/16 09:53:58;;;;;;;16.73;2.72;;;;;;;6.43;85.84;101055.78;5199621;28;20033;-75
2021/03/16 09:56:32;;;;;;;14.50;2.70;;;;;;;6.42;86.73;101055.81;5192666;28;20041;-77
2021/03/16 09:59:03;;;;;;;20.98;5.05;;;;;;;6.49;85.69;101060.94;5196777;28;20025;-77
2021/03/16 10:01:39;;;;;;;29.20;8.50;;;;;;;6.46;84.97;101058.34;5201853;28;20103;-76
2021/03/16 10:04:14;;;;;;;26.60;5.88;;;;;;;6.49;83.33;101055.72;5190045;28;20053;-77
2021/03/16 10:06:44;;;;;;;17.48;4.75;;;;;;;6.47;83.93;101059.22;5191849;28;20029;-77
2021/03/16 10:09:16;;;;;;;14.70;3.00;;;;;;;6.63;83.55;101060.75;5197849;28;20033;-77
2021/03/16 10:11:47;;;;;;;20.73;4.50;;;;;;;6.70;83.86;101059.78;5193717;28;20021;-77
2021/03/16 10:14:29;;;;;;;13.05;2.53;;;;;;;6.62;83.93;101059.03;5197851;28;20025;-77
2021/03/16 10:16:59;;;;;;;15.48;2.70;;;;;;;6.76;84.65;101064.94;5201455;28;20708;-77
2021/03/16 10:19:30;;;;;;;15.30;3.63;;;;;;;6.96;85.38;101065.53;5198883;28;20029;-77
2021/03/16 10:22:11;;;;;;;13.27;2.42;;;;;;;6.90;83.87;101069.06;5197804;28;20518;-77
2021/03/16 10:24:41;;;;;;;12.80;2.20;;;;;;;6.99;82.40;101065.47;5197568;28;20657;-77
2021/03/16 10:27:22;;;;;;;13.20;2.15;;;;;;;7.21;81.47;101061.69;5200044;28;20120;-77
2021/03/16 10:29:53;;;;;;;16.55;2.95;;;;;;;7.20;80.69;101070.38;5199378;28;20053;-77
2021/03/16 10:32:23;;;;;;;13.38;2.63;;;;;;;7.32;80.94;101071.94;5198258;28;20685;-77
2021/03/16 10:34:53;;;;;;;13.52;2.30;;;;;;;7.22;79.08;101075.53;5191944;28;20025;-77
2021/03/16 10:37:25;;;;;;;8.82;2.38;;;;;;;7.43;78.70;101074.38;5190030;28;20049;-77
2021/03/16 10:39:55;;;;;;;15.52;2.28;;;;;;;7.59;79.68;101071.53;5192002;28;20036;-77
2021/03/16 10:42:26;;;;;;;10.20;2.15;;;;;;;7.53;80.01;101074.19;5192946;28;20507;-77
2021/03/16 10:44:56;;;;;;;14.38;2.20;;;;;;;7.26;81.12;101072.91;5197119;28;20025;-77
2021/03/16 10:47:26;;;;;;;13.15;2.22;;;;;;;7.35;81.01;101069.28;5200642;28;20045;-77
2021/03/16 10:49:57;;;;;;;15.18;2.50;;;;;;;7.50;81.38;101065.63;5193020;28;20036;-77
2021/03/16 10:52:27;;;;;;;9.40;2.10;;;;;;;7.51;81.73;101073.38;5189166;28;20061;-77
2021/03/16 10:54:57;;;;;;;9.95;2.10;;;;;;;7.73;81.50;101064.34;5193653;28;20041;-77
2021/03/16 10:57:28;;;;;;;11.13;1.70;;;;;;;7.79;80.58;101069.47;5191525;28;20048;-77
2021/03/16 10:59:59;;;;;;;15.10;2.30;;;;;;;7.93;80.50;101066.63;5199396;28;20099;-77
2021/03/16 11:02:29;;;;;;;7.28;1.80;;;;;;;8.00;80.03;101074.28;5200002;28;20525;-77
2021/03/16 11:04:59;;;;;;;10.82;2.45;;;;;;;7.86;79.82;101075.44;5196415;28;20038;-76
2021/03/16 11:07:30;;;;;;;9.18;2.42;;;;;;;7.80;79.22;101075.50;5190965;28;20112;-77
2021/03/16 11:10:00;;;;;;;15.10;3.03;;;;;;;8.04;77.83;101072.50;5199586;28;20403;-77
2021/03/16 11:12:31;;;;;;;11.18;2.10;;;;;;;8.06;77.66;101073.34;5192236;28;20029;-77
2021/03/16 11:15:01;;;;;;;13.27;1.90;;;;;;;8.10;78.14;101072.38;5198781;28;20060;-77
2021/03/16 11:17:31;;;;;;;10.50;1.63;;;;;;;7.91;79.64;101074.44;5196043;28;20442;-77
2021/03/16 11:20:03;;;;;;;8.48;1.40;;;;;;;7.57;81.48;101083.69;5187574;28;20025;-77
2021/03/16 11:22:33;;;;;;;8.07;1.50;;;;;;;7.86;82.63;101086.69;5191964;28;20095;-77
2021/03/16 11:25:05;;;;;;;11.57;1.75;;;;;;;8.00;80.93;101074.28;5186403;28;20492;-76
2021/03/16 11:27:36;;;;;;;11.55;1.73;;;;;;;8.20;80.34;101081.81;5190544;28;20037;-77
2021/03/16 11:30:07;;;;;;;7.03;1.38;;;;;;;8.35;80.10;101077.16;5188317;28;20108;-77
2021/03/16 11:32:38;;;;;;;9.88;1.90;;;;;;;8.23;79.34;101081.75;5191432;28;20029;-77
2021/03/16 11:35:09;;;;;;;13.13;1.80;;;;;;;8.32;79.48;101068.53;5187788;28;20045;-77
2021/03/16 11:37:39;;;;;;;10.15;1.85;;;;;;;8.03;79.97;101074.25;5191190;28;20029;-77
2021/03/16 11:40:10;;;;;;;7.60;1.75;;;;;;;8.22;79.53;101065.25;5187024;28;20510;-77
2021/03/16 11:42:41;;;;;;;23.92;6.97;;;;;;;8.52;79.64;101067.28;5192852;28;20519;-76
2021/03/16 11:45:11;;;;;;;8.13;2.00;;;;;;;8.76;79.04;101058.97;5197508;28;20064;-77